Accueil
METAR-TAF:

METAR-TAF

Aéroports :

Seldovia, Alaska, États-Unis

latitude: 59-27N, longitude: 151-42W, altitude: 9 m

Observation

Le bulletin a été fait il y a 22 minutes, à 22:53 UTC
Vent 6 kt de direction variable
Température 8°C
Humidité 76%
Pression 1005 hPa
Visibilité: 16.1 km
Nuages fragmentés à une hauteur de 4800 ft
Nuages fragmentés à une hauteur de 6000 ft
Nuages fragmentés à une hauteur de 7000 ft

METAR: PASO 262253Z AUTO VRB06KT 10SM BKN048 BKN060 BKN070 08/04 A2967 RMK AO2 RAB34E44 SLP049 P0000 T00830039 TSNO $

Heure: 15:15 (23:15 UTC)


TAF: absent

Observations et prévisions météorologiques de plus de 4000 aéroports (messages METAR et TAF).

Les stations disponibles sont représentées par des disques jaunes et rouges sur la carte.

Passer la souris dessus pour voir le nom de la station.

Cliquer dessus pour voir les observations et prévisions météorologiques.

Pour changer de carte: cliquez sur les boutons verts avec une croix noire pour zoomer, sur le bouton vert avec un tiret pour effectuer un zoom arrière, ou sur les flèches vertes pour les cartes adjacentes.


METAR-TAF: